0TS1 weather

Dooley Airport
Justin, Texas, United States

Public forecast

Using degrees Fahrenheit for public forecast. Weather courtesy of forecast.io.

METAR (pilot weather report)

Closest report is Fort Worth Alliance Airport, 7.1 nm (13.1 km) SSW. Retrieved 2019/09/19 09:36 UTC (0 seconds ago):

KAFW 190936Z 09003KT 10SM BKN017 24/21 A2989 RMK AO2 T02440211

TAF (pilot weather forecast)

Closest forecast is Fort Worth Alliance Airport, 7.1 nm (13.1 km) SSW. Retrieved 2019/09/19 06:22 UTC (3 hours ago):

TAF KAFW 190520Z 1906/2006 08009KT P6SM SCT050 FM191000 07005KT P6SM BKN012 FM191900 07011KT P6SM VCSH BKN025 FM200100 08008KT P6SM BKN025